Bloomington, Illinois
Current Conditions -  °F | °C
As of 2:56 AM on Friday 31 Oct 2014 (Local Time) from KBMI Reporting Station
Scattered Clouds Scattered Clouds  
Wind Chill: 39°   Ceiling: Unl
Heat Index: 44°   Visibility: 10mi
Dew Point: 42°   Wind: 8mph
Humidity: 93%   Direction: 290°WNW
Pressure: 30.07"   Gusts: NA
Location:  40.49°N, 89°W
Report Text: KBMI 310756Z AUTO 29007KT 10SM SCT049 07/06 A3007 RMK AO2 T00660055 SLP188
Loading
Personal Weather Stations






























Interactive Weather Map New forecast layout! Learn more

10-Day Weather Forecast

Advertisements
Track Severe Weather on mobile